Time;durP1;ratioP1;P1;durP2;ratioP2;P2;SDS_P1;SDS_P2;PMS_P1;PMS_P2;Temp;Humidity;BMP_temperature;BMP_pressure;BME280_temperature;BME280_humidity;BME280_pressure;Samples;Min_cycle;Max_cycle;Signal;HPM_P1;HPM_P2
2021/12/25 00:01:47;;;;;;;;;;;0.30;99.90;;;;;;5066530;28;19999;-36
2021/12/25 00:04:14;;;;;;;;;;;0.20;99.90;;;;;;5064375;28;19924;-35
2021/12/25 00:06:40;;;;;;;;;;;0.20;99.90;;;;;;5071777;28;19924;-35
2021/12/25 00:09:08;;;;;;;;;;;0.20;99.90;;;;;;5067171;28;19925;-35
2021/12/25 00:11:35;;;;;;;;;;;0.20;99.90;;;;;;5063008;28;19932;-35
2021/12/25 00:14:09;;;;;;;;;;;0.20;99.90;;;;;;5064878;28;19938;-38
2021/12/25 00:16:36;;;;;;;;;;;0.20;99.90;;;;;;5055539;28;20360;-36
2021/12/25 00:19:03;;;;;;;;;;;0.10;99.90;;;;;;5055733;28;20043;-35
2021/12/25 00:21:30;;;;;;;;;;;0.10;99.90;;;;;;5057499;28;20362;-35
2021/12/25 00:23:57;;;;;;;;;;;0.20;99.90;;;;;;5074111;28;20291;-35
2021/12/25 00:26:39;;;;;;;;;;;0.20;99.90;;;;;;5074124;28;19966;-35
2021/12/25 00:29:29;;;;;;;;;;;0.10;99.90;;;;;;5071269;28;20026;-37
2021/12/25 00:32:08;;;;;;;;;;;0.10;99.90;;;;;;5053540;28;19936;-36
2021/12/25 00:34:34;;;;;;;;;;;0.10;99.90;;;;;;5072273;28;20369;-35
2021/12/25 00:37:01;;;;;;;;;;;0.10;99.90;;;;;;5072438;28;20369;-35
2021/12/25 00:39:29;;;;;;;;;;;0.00;99.90;;;;;;5055505;28;19924;-35
2021/12/25 00:41:57;;;;;;;;;;;0.10;99.90;;;;;;5075641;28;19925;-37
2021/12/25 00:44:24;;;;;;;;;;;0.00;99.90;;;;;;5073315;28;19924;-36
2021/12/25 00:46:51;;;;;;;;;;;0.00;99.90;;;;;;5059617;28;20441;-36
2021/12/25 00:49:18;;;;;;;;;;;-0.10;99.90;;;;;;5054813;28;19925;-36
2021/12/25 00:51:44;;;;;;;;;;;-0.10;99.90;;;;;;5071504;28;19946;-36
2021/12/25 00:54:11;;;;;;;;;;;-0.10;99.90;;;;;;5056174;28;19924;-35
2021/12/25 00:56:38;;;;;;;;;;;-0.10;99.90;;;;;;5072954;28;20295;-38
2021/12/25 00:59:06;;;;;;;;;;;-0.10;99.90;;;;;;5072221;28;20339;-36
2021/12/25 01:01:33;;;;;;;;;;;-0.10;99.90;;;;;;5072726;28;19924;-36
2021/12/25 01:04:00;;;;;;;;;;;-0.20;99.90;;;;;;5051052;28;19960;-36
2021/12/25 01:06:27;;;;;;;;;;;-0.20;99.90;;;;;;5056060;28;19970;-37
2021/12/25 01:08:53;;;;;;;;;;;-0.20;99.90;;;;;;5072476;28;19932;-35
2021/12/25 01:11:23;;;;;;;;;;;-0.20;99.90;;;;;;5054932;28;19928;-36
2021/12/25 01:13:55;;;;;;;;;;;-0.20;99.90;;;;;;5056003;28;20380;-36
2021/12/25 01:16:43;;;;;;;;;;;-0.20;99.90;;;;;;5072998;28;19970;-36
2021/12/25 01:19:39;;;;;;;;;;;-0.30;99.90;;;;;;5070590;28;20293;-36
2021/12/25 01:22:25;;;;;;;;;;;-0.30;99.90;;;;;;5072431;28;20405;-36
2021/12/25 01:25:23;;;;;;;;;;;-0.30;99.90;;;;;;5073741;28;21327;-37
2021/12/25 01:28:29;;;;;;;;;;;-0.40;99.90;;;;;;5071804;28;20399;-38
2021/12/25 01:30:58;;;;;;;;;;;-0.40;99.90;;;;;;5071953;28;19932;-36
2021/12/25 01:36:35;;;;;;;;;;;-0.60;99.70;;;;;;5039078;28;20011;-36
2021/12/25 01:39:10;;;;;;;;;;;-0.60;99.70;;;;;;5069943;28;19932;-36
2021/12/25 01:49:52;;;;;;;;;;;-0.80;99.30;;;;;;5072242;28;19928;-36
2021/12/25 01:52:25;;;;;;;;;;;-0.80;98.90;;;;;;5072337;28;19932;-36
2021/12/25 01:54:51;;;;;;;;;;;-0.90;99.10;;;;;;5070270;28;20018;-36
2021/12/25 01:57:18;;;;;;;;;;;-0.90;99.20;;;;;;5075538;28;19946;-37
2021/12/25 01:59:45;;;;;;;;;;;-0.90;99.10;;;;;;5067422;28;20340;-37
2021/12/25 02:02:12;;;;;;;;;;;-0.90;99.10;;;;;;5067914;28;19932;-36
2021/12/25 02:04:39;;;;;;;;;;;-1.00;99.50;;;;;;5070838;28;21677;-40
2021/12/25 02:07:07;;;;;;;;;;;-1.00;99.70;;;;;;5072364;28;20490;-36
2021/12/25 02:09:34;;;;;;;;;;;-0.90;99.90;;;;;;5072805;28;19963;-36
2021/12/25 02:12:00;;;;;;;;;;;-1.00;99.90;;;;;;5064410;28;19979;-39
2021/12/25 02:14:28;;;;;;;;;;;-1.00;99.90;;;;;;5062435;28;20364;-36
2021/12/25 02:17:00;;;;;;;;;;;-1.00;99.90;;;;;;5071457;28;19924;-36
2021/12/25 02:19:37;;;;;;;;;;;-1.10;99.90;;;;;;5071448;28;19970;-36
2021/12/25 02:22:05;;;;;;;;;;;-1.10;99.60;;;;;;5066290;28;20407;-39
2021/12/25 02:24:32;;;;;;;;;;;-1.10;99.30;;;;;;5069977;28;19933;-37
2021/12/25 02:26:58;;;;;;;;;;;-1.20;99.40;;;;;;5070792;28;19968;-36
2021/12/25 02:29:25;;;;;;;;;;;-1.20;99.30;;;;;;5069534;28;20399;-36
2021/12/25 02:31:52;;;;;;;;;;;-1.20;99.10;;;;;;5061959;28;20354;-38
2021/12/25 02:34:19;;;;;;;;;;;-1.30;99.10;;;;;;5062209;28;19928;-37
2021/12/25 02:36:46;;;;;;;;;;;-1.30;99.10;;;;;;5070880;28;19932;-36
2021/12/25 02:39:14;;;;;;;;;;;-1.30;99.50;;;;;;5063203;28;19925;-36
2021/12/25 02:41:40;;;;;;;;;;;-1.40;99.20;;;;;;5054501;28;19967;-36
2021/12/25 02:44:07;;;;;;;;;;;-1.40;99.40;;;;;;5084280;28;20008;-37
2021/12/25 02:46:35;;;;;;;;;;;-1.40;99.20;;;;;;5078962;28;19924;-36
2021/12/25 02:49:01;;;;;;;;;;;-1.40;99.00;;;;;;5067032;28;20030;-36
2021/12/25 02:51:29;;;;;;;;;;;-1.50;99.30;;;;;;5083697;28;19970;-36
2021/12/25 02:53:56;;;;;;;;;;;-1.50;98.80;;;;;;5081013;28;19963;-37
2021/12/25 02:56:24;;;;;;;;;;;-1.50;98.80;;;;;;5069714;28;19924;-37
2021/12/25 02:58:51;;;;;;;;;;;-1.50;99.20;;;;;;5061996;28;20011;-37
2021/12/25 03:01:18;;;;;;;;;;;-1.60;98.40;;;;;;5070207;28;19938;-36
2021/12/25 03:03:45;;;;;;;;;;;-1.60;98.70;;;;;;5065054;28;20027;-36
2021/12/25 03:06:12;;;;;;;;;;;-1.60;98.40;;;;;;5094918;28;19924;-36
2021/12/25 03:08:39;;;;;;;;;;;-1.60;98.50;;;;;;5065835;28;19930;-36
2021/12/25 03:11:06;;;;;;;;;;;-1.60;98.20;;;;;;5056642;28;19928;-37
2021/12/25 03:13:37;;;;;;;;;;;-1.70;98.40;;;;;;5066448;28;19974;-35
2021/12/25 03:16:07;;;;;;;;;;;-1.70;98.20;;;;;;5071260;28;19924;-36
2021/12/25 03:18:41;;;;;;;;;;;-1.70;97.90;;;;;;5055969;28;19925;-35
2021/12/25 03:21:08;;;;;;;;;;;-1.80;98.00;;;;;;5071764;28;20361;-36
2021/12/25 03:23:35;;;;;;;;;;;-1.80;97.60;;;;;;5060840;28;19978;-35
2021/12/25 03:26:02;;;;;;;;;;;-1.80;97.50;;;;;;5061066;28;19929;-37
2021/12/25 03:28:30;;;;;;;;;;;-1.80;97.80;;;;;;5052484;28;20011;-36
2021/12/25 03:31:00;;;;;;;;;;;-1.80;98.00;;;;;;5092734;28;19928;-35
2021/12/25 03:33:27;;;;;;;;;;;-1.80;97.50;;;;;;5062364;28;20011;-35
2021/12/25 03:35:54;;;;;;;;;;;-1.90;97.60;;;;;;5075501;28;19924;-35
2021/12/25 03:38:21;;;;;;;;;;;-1.90;97.40;;;;;;5056922;28;19992;-36
2021/12/25 03:40:48;;;;;;;;;;;-2.00;97.00;;;;;;5072970;28;19931;-39
2021/12/25 03:43:14;;;;;;;;;;;-2.00;97.10;;;;;;5057346;28;19960;-35
2021/12/25 03:45:41;;;;;;;;;;;-2.00;96.60;;;;;;5075224;28;20289;-35
2021/12/25 03:48:10;;;;;;;;;;;-2.10;96.80;;;;;;5065157;28;19971;-38
2021/12/25 03:53:38;;;;;;;;;;;-2.20;96.90;;;;;;5073603;28;19928;-35
2021/12/25 03:58:49;;;;;;;;;;;-2.10;96.70;;;;;;5069098;28;19924;-36
2021/12/25 04:01:27;;;;;;;;;;;-2.20;96.60;;;;;;5065433;28;19984;-37
2021/12/25 04:04:07;;;;;;;;;;;-2.20;96.40;;;;;;5069396;28;20354;-36
2021/12/25 04:06:34;;;;;;;;;;;-2.30;96.50;;;;;;5070707;28;19930;-36
2021/12/25 04:09:04;;;;;;;;;;;-2.30;96.30;;;;;;5067388;28;19974;-36
2021/12/25 04:11:34;;;;;;;;;;;-2.30;96.60;;;;;;5074184;28;19931;-36
2021/12/25 04:14:01;;;;;;;;;;;-2.30;96.80;;;;;;5057504;28;19935;-37
2021/12/25 04:16:27;;;;;;;;;;;-2.40;96.20;;;;;;5057543;28;19931;-36
2021/12/25 04:18:56;;;;;;;;;;;-2.40;96.30;;;;;;5075007;28;19924;-36
2021/12/25 04:21:24;;;;;;;;;;;-2.40;95.90;;;;;;5074085;28;20406;-36
2021/12/25 04:23:51;;;;;;;;;;;-2.50;96.20;;;;;;5058854;28;19942;-36
2021/12/25 04:26:19;;;;;;;;;;;-2.40;96.20;;;;;;5074703;28;19964;-37
2021/12/25 04:28:58;;;;;;;;;;;-2.50;96.10;;;;;;5067196;28;19970;-36
2021/12/25 04:31:34;;;;;;;;;;;-2.50;96.40;;;;;;5073524;28;19924;-36
2021/12/25 04:42:54;;;;;;;;;;;-2.60;96.40;;;;;;5073472;28;20065;-35
2021/12/25 04:48:52;;;;;;;;;;;-2.60;96.20;;;;;;5068827;28;20011;-36
2021/12/25 05:02:19;;;;;;;;;;;-2.80;96.70;;;;;;5073712;28;19925;-35
2021/12/25 05:04:51;;;;;;;;;;;-2.80;96.70;;;;;;5069307;28;20011;-35
2021/12/25 05:07:19;;;;;;;;;;;-2.80;96.70;;;;;;5059904;28;20287;-35
2021/12/25 05:09:46;;;;;;;;;;;-2.80;97.00;;;;;;5073430;28;19930;-35
2021/12/25 05:12:12;;;;;;;;;;;-2.80;96.60;;;;;;5058545;28;19968;-35
2021/12/25 05:14:39;;;;;;;;;;;-2.80;96.80;;;;;;5072446;28;19924;-35
2021/12/25 05:17:07;;;;;;;;;;;-2.90;97.00;;;;;;5072084;28;20273;-36
2021/12/25 05:19:34;;;;;;;;;;;-2.90;97.00;;;;;;5060948;28;19933;-35
2021/12/25 05:22:01;;;;;;;;;;;-2.90;97.00;;;;;;5073704;28;19931;-35
2021/12/25 05:24:29;;;;;;;;;;;-3.00;96.90;;;;;;5093566;28;20381;-35
2021/12/25 05:26:57;;;;;;;;;;;-3.00;97.10;;;;;;5072802;28;20411;-35
2021/12/25 05:29:25;;;;;;;;;;;-3.00;97.10;;;;;;5072780;28;20261;-35
2021/12/25 05:31:52;;;;;;;;;;;-3.00;97.40;;;;;;5053405;28;19928;-35
2021/12/25 05:34:18;;;;;;;;;;;-3.00;97.40;;;;;;5059508;28;19928;-35
2021/12/25 05:36:45;;;;;;;;;;;-3.00;97.50;;;;;;5073092;28;19924;-35
2021/12/25 05:39:13;;;;;;;;;;;-3.00;97.60;;;;;;5060620;28;19975;-35
2021/12/25 05:41:41;;;;;;;;;;;-3.00;97.50;;;;;;5058979;28;20284;-36
2021/12/25 05:44:08;;;;;;;;;;;-3.10;97.40;;;;;;5073361;28;20015;-35
2021/12/25 05:46:35;;;;;;;;;;;-3.10;97.70;;;;;;5071606;28;20383;-36
2021/12/25 05:49:02;;;;;;;;;;;-3.10;97.70;;;;;;5072377;28;20011;-36
2021/12/25 05:51:29;;;;;;;;;;;-3.10;97.70;;;;;;5072439;28;19968;-38
2021/12/25 05:53:55;;;;;;;;;;;-3.10;97.60;;;;;;5072379;28;19925;-35
2021/12/25 05:56:23;;;;;;;;;;;-3.10;97.60;;;;;;5071962;28;20422;-35
2021/12/25 05:58:51;;;;;;;;;;;-3.10;97.70;;;;;;5072567;28;19931;-35
2021/12/25 06:01:18;;;;;;;;;;;-3.20;97.80;;;;;;5070346;28;19933;-38
2021/12/25 06:03:45;;;;;;;;;;;-3.20;97.50;;;;;;5095462;28;20356;-36
2021/12/25 06:06:12;;;;;;;;;;;-3.20;97.50;;;;;;5072838;28;20014;-35
2021/12/25 06:08:38;;;;;;;;;;;-3.20;97.50;;;;;;5056709;28;19982;-35
2021/12/25 06:11:05;;;;;;;;;;;-3.20;97.50;;;;;;5055628;28;19968;-35
2021/12/25 06:13:32;;;;;;;;;;;-3.20;97.50;;;;;;5057247;28;20019;-35
2021/12/25 06:16:00;;;;;;;;;;;-3.30;97.50;;;;;;5072210;28;19928;-35
2021/12/25 06:18:27;;;;;;;;;;;-3.30;97.40;;;;;;5072702;28;20287;-36
2021/12/25 06:20:54;;;;;;;;;;;-3.30;97.10;;;;;;5071092;28;19966;-33
2021/12/25 06:23:20;;;;;;;;;;;-3.30;97.30;;;;;;5055719;28;19959;-33
2021/12/25 06:25:47;;;;;;;;;;;-3.30;96.80;;;;;;5072652;28;19925;-34
2021/12/25 06:28:14;;;;;;;;;;;-3.30;97.10;;;;;;5091532;28;19924;-34
2021/12/25 06:30:43;;;;;;;;;;;-3.30;97.10;;;;;;5055786;28;20424;-34
2021/12/25 06:33:11;;;;;;;;;;;-3.30;96.80;;;;;;5061781;28;19994;-34
2021/12/25 06:35:38;;;;;;;;;;;-3.40;96.50;;;;;;5059251;28;19925;-39
2021/12/25 06:38:04;;;;;;;;;;;-3.20;96.30;;;;;;5053381;28;19924;-33
2021/12/25 06:40:31;;;;;;;;;;;-3.40;96.70;;;;;;5071633;28;19924;-33
2021/12/25 06:42:58;;;;;;;;;;;-3.40;96.20;;;;;;5071500;28;19979;-34
2021/12/25 06:45:25;;;;;;;;;;;-3.40;96.20;;;;;;5072428;28;19970;-34
2021/12/25 06:47:52;;;;;;;;;;;-3.40;96.00;;;;;;5072012;28;20376;-34
2021/12/25 06:50:21;;;;;;;;;;;-3.50;96.00;;;;;;5072008;28;19924;-33
2021/12/25 06:52:48;;;;;;;;;;;-3.50;96.30;;;;;;5061335;28;19970;-34
2021/12/25 06:55:15;;;;;;;;;;;-3.40;95.80;;;;;;5072234;28;20766;-34
2021/12/25 06:57:48;;;;;;;;;;;-3.50;95.30;;;;;;5057274;28;19976;-38
2021/12/25 07:00:15;;;;;;;;;;;-3.50;95.30;;;;;;5093214;28;20000;-34
2021/12/25 07:02:42;;;;;;;;;;;-3.50;95.30;;;;;;5066825;28;20158;-35
2021/12/25 07:05:09;;;;;;;;;;;-3.60;95.00;;;;;;5071666;28;19924;-32
2021/12/25 07:07:37;;;;;;;;;;;-3.60;95.10;;;;;;5071971;28;19970;-33
2021/12/25 07:10:04;;;;;;;;;;;-3.60;95.30;;;;;;5075705;28;19924;-34
2021/12/25 07:12:36;;;;;;;;;;;-3.60;94.90;;;;;;5063972;28;19931;-34
2021/12/25 07:15:03;;;;;;;;;;;-3.60;94.50;;;;;;5066272;28;20015;-35
2021/12/25 07:17:30;;;;;;;;;;;-3.60;94.10;;;;;;5076155;28;20277;-34
2021/12/25 07:19:56;;;;;;;;;;;-3.60;94.80;;;;;;5066546;28;19925;-33
2021/12/25 07:22:23;;;;;;;;;;;-3.70;93.90;;;;;;5074507;28;19962;-33
2021/12/25 07:24:51;;;;;;;;;;;-3.60;94.10;;;;;;5063679;28;19998;-34
2021/12/25 07:27:18;;;;;;;;;;;-3.70;94.00;;;;;;5060069;28;20384;-34
2021/12/25 07:29:45;;;;;;;;;;;-3.70;94.10;;;;;;5075473;28;20335;-34
2021/12/25 07:32:12;;;;;;;;;;;-3.70;94.20;;;;;;5076938;28;20324;-34
2021/12/25 07:34:40;;;;;;;;;;;-3.70;94.10;;;;;;5063080;28;20013;-33
2021/12/25 07:37:06;;;;;;;;;;;-3.70;93.90;;;;;;5064207;28;19924;-35
2021/12/25 07:39:33;;;;;;;;;;;-3.70;94.20;;;;;;5075366;28;20011;-34
2021/12/25 07:42:01;;;;;;;;;;;-3.70;93.80;;;;;;5075429;28;19925;-33
2021/12/25 07:44:28;;;;;;;;;;;-3.80;93.90;;;;;;5075316;28;19936;-33
2021/12/25 07:46:55;;;;;;;;;;;-3.80;94.30;;;;;;5075672;28;20422;-34
2021/12/25 07:49:22;;;;;;;;;;;-3.80;94.10;;;;;;5059314;28;20021;-33
2021/12/25 07:51:48;;;;;;;;;;;-3.80;94.10;;;;;;5075124;28;19925;-34
2021/12/25 07:54:15;;;;;;;;;;;-3.80;94.00;;;;;;5064221;28;19950;-34
2021/12/25 07:56:42;;;;;;;;;;;-3.80;94.40;;;;;;5074734;28;19925;-34
2021/12/25 07:59:10;;;;;;;;;;;-3.80;94.60;;;;;;5070477;28;20295;-35
2021/12/25 08:01:37;;;;;;;;;;;-3.90;94.60;;;;;;5072864;28;19924;-33
2021/12/25 08:04:04;;;;;;;;;;;-3.80;94.40;;;;;;5069459;28;20024;-35
2021/12/25 08:06:31;;;;;;;;;;;-3.90;94.70;;;;;;5071576;28;19967;-35
2021/12/25 08:09:00;;;;;;;;;;;-3.90;94.70;;;;;;5058626;28;19982;-33
2021/12/25 08:11:27;;;;;;;;;;;-3.90;94.80;;;;;;5073933;28;19935;-34
2021/12/25 08:13:54;;;;;;;;;;;-3.90;95.10;;;;;;5074610;28;19931;-34
2021/12/25 08:16:22;;;;;;;;;;;-3.90;95.00;;;;;;5075370;28;19932;-34
2021/12/25 08:18:48;;;;;;;;;;;-3.90;95.30;;;;;;5061044;28;19990;-36
2021/12/25 08:21:15;;;;;;;;;;;-4.00;95.20;;;;;;5083211;28;19931;-34
2021/12/25 08:23:42;;;;;;;;;;;-3.90;95.50;;;;;;5062966;28;19963;-35
2021/12/25 08:26:09;;;;;;;;;;;-3.90;95.40;;;;;;5074416;28;19929;-33
2021/12/25 08:28:36;;;;;;;;;;;-3.90;95.40;;;;;;5076688;28;19924;-34
2021/12/25 08:31:02;;;;;;;;;;;-3.90;95.60;;;;;;5073129;28;19924;-34
2021/12/25 08:33:30;;;;;;;;;;;-3.80;95.50;;;;;;5056435;28;19982;-34
2021/12/25 08:35:57;;;;;;;;;;;-3.90;95.70;;;;;;5075482;28;20384;-33
2021/12/25 08:38:24;;;;;;;;;;;-3.90;95.50;;;;;;5054960;28;19972;-36
2021/12/25 08:40:54;;;;;;;;;;;-3.90;95.60;;;;;;5081503;28;19924;-35
2021/12/25 08:43:24;;;;;;;;;;;-3.90;95.80;;;;;;5075870;28;20385;-34
2021/12/25 08:46:01;;;;;;;;;;;-3.90;95.70;;;;;;5058563;28;19933;-34
2021/12/25 08:48:28;;;;;;;;;;;-3.90;95.80;;;;;;5077468;28;19925;-33
2021/12/25 08:50:56;;;;;;;;;;;-3.80;95.90;;;;;;5084246;28;19940;-34
2021/12/25 08:53:24;;;;;;;;;;;-3.80;95.80;;;;;;5081113;28;20022;-34
2021/12/25 08:55:51;;;;;;;;;;;-3.80;95.90;;;;;;5067242;28;19967;-34
2021/12/25 08:58:18;;;;;;;;;;;-3.80;96.10;;;;;;5059321;28;20339;-45
2021/12/25 09:00:45;;;;;;;;;;;-3.80;96.00;;;;;;5065713;28;19994;-44
2021/12/25 09:03:12;;;;;;;;;;;-3.70;95.90;;;;;;5061822;28;19925;-43
2021/12/25 09:05:39;;;;;;;;;;;-3.70;96.00;;;;;;5082733;28;19959;-44
2021/12/25 09:08:07;;;;;;;;;;;-3.70;95.90;;;;;;5059150;28;20372;-47
2021/12/25 09:10:35;;;;;;;;;;;-3.70;95.60;;;;;;5077763;28;19934;-44
2021/12/25 09:13:02;;;;;;;;;;;-3.60;95.70;;;;;;5060544;28;20015;-42
2021/12/25 09:15:29;;;;;;;;;;;-3.50;95.70;;;;;;5075367;28;20345;-43
2021/12/25 09:17:55;;;;;;;;;;;-3.50;95.60;;;;;;5079347;28;20020;-44
2021/12/25 09:20:22;;;;;;;;;;;-3.40;95.20;;;;;;5063942;28;20023;-43
2021/12/25 09:22:49;;;;;;;;;;;-3.40;95.40;;;;;;5077026;28;19928;-42
2021/12/25 09:25:17;;;;;;;;;;;-3.40;95.50;;;;;;5073587;28;19986;-42
2021/12/25 09:27:44;;;;;;;;;;;-3.40;94.90;;;;;;5055740;28;20341;-44
2021/12/25 09:30:11;;;;;;;;;;;-3.30;95.00;;;;;;5078714;28;19924;-44
2021/12/25 09:32:38;;;;;;;;;;;-3.30;94.90;;;;;;5055134;28;19931;-42
2021/12/25 09:35:05;;;;;;;;;;;-3.30;94.80;;;;;;5057387;28;19928;-42
2021/12/25 09:37:32;;;;;;;;;;;-3.20;94.70;;;;;;5073883;28;19925;-45
2021/12/25 09:39:59;;;;;;;;;;;-3.10;94.70;;;;;;5056856;28;20353;-44
2021/12/25 09:42:27;;;;;;;;;;;-3.00;94.60;;;;;;5059617;28;20339;-44
2021/12/25 09:44:54;;;;;;;;;;;-3.00;94.40;;;;;;5062583;28;20293;-43
2021/12/25 09:47:21;;;;;;;;;;;-2.90;94.30;;;;;;5069626;28;20300;-44
2021/12/25 09:49:48;;;;;;;;;;;-2.80;94.00;;;;;;5072445;28;19970;-42
2021/12/25 09:52:15;;;;;;;;;;;-2.70;93.40;;;;;;5095833;28;19935;-43
2021/12/25 09:54:41;;;;;;;;;;;-2.70;93.10;;;;;;5056728;28;19928;-43
2021/12/25 09:57:08;;;;;;;;;;;-2.60;93.20;;;;;;5071534;28;19924;-43
2021/12/25 09:59:36;;;;;;;;;;;-2.50;92.90;;;;;;5064944;28;20022;-42
2021/12/25 10:02:03;;;;;;;;;;;-2.50;92.90;;;;;;5062129;28;19964;-42
2021/12/25 10:04:32;;;;;;;;;;;-2.40;92.50;;;;;;5069803;28;20377;-43
2021/12/25 10:06:59;;;;;;;;;;;-2.40;93.00;;;;;;5056922;28;19974;-42
2021/12/25 10:09:26;;;;;;;;;;;-2.30;92.80;;;;;;5058508;28;19928;-42
2021/12/25 10:11:59;;;;;;;;;;;-2.20;92.20;;;;;;5060923;28;19928;-43
2021/12/25 10:14:26;;;;;;;;;;;-2.20;92.20;;;;;;5089782;28;20368;-43
2021/12/25 10:16:55;;;;;;;;;;;-2.10;92.40;;;;;;5058259;28;20042;-44
2021/12/25 10:19:22;;;;;;;;;;;-2.10;92.50;;;;;;5071935;28;19932;-43
2021/12/25 10:21:49;;;;;;;;;;;-2.00;92.30;;;;;;5075747;28;19932;-45
2021/12/25 10:24:19;;;;;;;;;;;-2.00;91.70;;;;;;5064857;28;19986;-46
2021/12/25 10:26:46;;;;;;;;;;;-2.00;91.80;;;;;;5053765;28;19924;-43
2021/12/25 10:29:17;;;;;;;;;;;-2.00;91.80;;;;;;5057816;28;19925;-44
2021/12/25 10:31:44;;;;;;;;;;;-2.00;91.80;;;;;;5053259;28;19928;-43
2021/12/25 10:34:15;;;;;;;;;;;-1.90;92.00;;;;;;5069568;28;19924;-42
2021/12/25 10:36:42;;;;;;;;;;;-1.90;91.40;;;;;;5053160;28;19971;-45
2021/12/25 10:39:10;;;;;;;;;;;-1.90;91.50;;;;;;5070518;28;19978;-44
2021/12/25 10:41:38;;;;;;;;;;;-1.90;91.40;;;;;;5054403;28;20017;-43
2021/12/25 10:44:12;;;;;;;;;;;-1.80;91.60;;;;;;5071326;28;19928;-43
2021/12/25 10:46:53;;;;;;;;;;;-1.80;91.60;;;;;;5056790;28;20434;-43
2021/12/25 10:49:22;;;;;;;;;;;-1.80;91.60;;;;;;5057361;28;20326;-43
2021/12/25 10:51:48;;;;;;;;;;;-1.70;91.70;;;;;;5071806;28;20398;-42
2021/12/25 10:54:18;;;;;;;;;;;-1.70;91.60;;;;;;5054290;28;20199;-43
2021/12/25 10:56:45;;;;;;;;;;;-1.60;91.70;;;;;;5070836;28;20415;-44
2021/12/25 10:59:13;;;;;;;;;;;-1.60;91.20;;;;;;5055085;28;20031;-44
2021/12/25 11:01:40;;;;;;;;;;;-1.60;91.10;;;;;;5057756;28;19925;-44
2021/12/25 11:04:08;;;;;;;;;;;-1.60;90.70;;;;;;5054211;28;20020;-44
2021/12/25 11:06:43;;;;;;;;;;;-1.50;90.80;;;;;;5069036;28;19929;-43
2021/12/25 11:09:10;;;;;;;;;;;-1.50;91.00;;;;;;5071461;28;19931;-43
2021/12/25 11:11:36;;;;;;;;;;;-1.50;90.30;;;;;;5054008;28;20027;-42
2021/12/25 11:14:03;;;;;;;;;;;-1.50;90.80;;;;;;5089952;28;19980;-44
2021/12/25 11:16:31;;;;;;;;;;;-1.40;90.40;;;;;;5060054;28;20415;-43
2021/12/25 11:19:04;;;;;;;;;;;-1.40;90.20;;;;;;5056353;28;19932;-43
2021/12/25 11:21:32;;;;;;;;;;;-1.30;90.70;;;;;;5069430;28;19967;-43
2021/12/25 11:24:07;;;;;;;;;;;-1.30;90.40;;;;;;5070589;28;20446;-44
2021/12/25 11:26:33;;;;;;;;;;;-1.20;90.10;;;;;;5070854;28;19925;-45
2021/12/25 11:29:00;;;;;;;;;;;-1.20;90.40;;;;;;5068451;28;19939;-44
2021/12/25 11:31:27;;;;;;;;;;;-1.20;89.40;;;;;;5057003;28;19964;-44
2021/12/25 11:33:54;;;;;;;;;;;-1.10;90.50;;;;;;5053935;28;19971;-43
2021/12/25 11:36:20;;;;;;;;;;;-1.10;89.30;;;;;;5060975;28;20417;-43
2021/12/25 11:38:47;;;;;;;;;;;-1.10;89.30;;;;;;5062901;28;20015;-43
2021/12/25 11:41:15;;;;;;;;;;;-1.10;89.10;;;;;;5071692;28;20001;-43
2021/12/25 11:43:45;;;;;;;;;;;-1.00;88.60;;;;;;5056515;28;19956;-43
2021/12/25 11:46:12;;;;;;;;;;;-1.00;89.80;;;;;;5055974;28;20380;-42
2021/12/25 11:48:39;;;;;;;;;;;-0.90;88.50;;;;;;5050411;28;19936;-45
2021/12/25 11:51:06;;;;;;;;;;;-0.90;88.50;;;;;;5067268;28;20009;-42
2021/12/25 11:53:43;;;;;;;;;;;-0.90;88.00;;;;;;5069459;28;20376;-43
2021/12/25 11:56:25;;;;;;;;;;;-0.80;88.30;;;;;;5057132;28;19978;-43
2021/12/25 11:58:54;;;;;;;;;;;-0.80;88.10;;;;;;5071582;28;20291;-42
2021/12/25 12:01:22;;;;;;;;;;;-0.70;88.80;;;;;;5087826;28;19925;-42
2021/12/25 12:03:54;;;;;;;;;;;-0.80;88.50;;;;;;5056680;28;19970;-43
2021/12/25 12:06:21;;;;;;;;;;;-0.70;87.80;;;;;;5056100;28;19924;-44
2021/12/25 12:09:07;;;;;;;;;;;-0.70;88.30;;;;;;5072969;28;19947;-45
2021/12/25 12:11:34;;;;;;;;;;;-0.70;88.30;;;;;;5070615;28;20608;-44
2021/12/25 12:14:18;;;;;;;;;;;-0.70;87.80;;;;;;5074163;28;19961;-47
2021/12/25 12:16:46;;;;;;;;;;;-0.70;86.90;;;;;;5072956;28;19928;-43
2021/12/25 12:19:37;;;;;;;;;;;-0.70;88.00;;;;;;5057972;28;19925;-44
2021/12/25 12:22:26;;;;;;;;;;;-0.60;87.30;;;;;;5049280;28;19933;-44
2021/12/25 12:25:18;;;;;;;;;;;-0.60;84.70;;;;;;5060556;28;19940;-43
2021/12/25 12:27:48;;;;;;;;;;;-0.60;84.80;;;;;;5055000;28;19924;-43
2021/12/25 12:30:35;;;;;;;;;;;-0.60;84.80;;;;;;5065814;28;20380;-44
2021/12/25 12:33:04;;;;;;;;;;;-0.60;84.90;;;;;;5070852;28;20025;-43
2021/12/25 12:35:31;;;;;;;;;;;-0.60;87.20;;;;;;5069042;28;20013;-44
2021/12/25 12:38:16;;;;;;;;;;;-0.50;87.70;;;;;;5074201;28;19968;-43
2021/12/25 12:40:43;;;;;;;;;;;-0.50;86.90;;;;;;5073116;28;20368;-44
2021/12/25 12:43:13;;;;;;;;;;;-0.50;87.70;;;;;;5075614;28;19970;-43
2021/12/25 12:45:40;;;;;;;;;;;-0.50;86.90;;;;;;5064470;28;19939;-43
2021/12/25 12:48:18;;;;;;;;;;;-0.50;88.40;;;;;;5076548;28;19928;-45
2021/12/25 12:50:46;;;;;;;;;;;-0.50;87.80;;;;;;5076932;28;20017;-43
2021/12/25 12:53:13;;;;;;;;;;;-0.50;86.90;;;;;;5068913;28;19986;-45
2021/12/25 12:55:40;;;;;;;;;;;-0.50;86.00;;;;;;5062223;28;20007;-43
2021/12/25 12:58:08;;;;;;;;;;;-0.60;85.80;;;;;;5072586;28;20461;-44
2021/12/25 13:00:35;;;;;;;;;;;-0.60;85.70;;;;;;5058199;28;19978;-45
2021/12/25 13:03:01;;;;;;;;;;;-0.60;87.10;;;;;;5056898;28;19982;-43
2021/12/25 13:05:31;;;;;;;;;;;-0.60;86.20;;;;;;5073634;28;19964;-44
2021/12/25 13:08:00;;;;;;;;;;;-0.60;87.30;;;;;;5071048;28;20281;-44
2021/12/25 13:10:33;;;;;;;;;;;-0.60;87.10;;;;;;5073039;28;20396;-43
2021/12/25 13:13:07;;;;;;;;;;;-0.60;89.10;;;;;;5057975;28;20389;-43
2021/12/25 13:15:34;;;;;;;;;;;-0.60;87.30;;;;;;5083781;28;20351;-44
2021/12/25 13:18:02;;;;;;;;;;;-0.60;88.00;;;;;;5062976;28;19931;-45
2021/12/25 13:20:35;;;;;;;;;;;-0.60;87.30;;;;;;5056912;28;20357;-43
2021/12/25 13:23:02;;;;;;;;;;;-0.60;86.30;;;;;;5071219;28;19955;-45
2021/12/25 13:25:29;;;;;;;;;;;-0.70;85.00;;;;;;5055597;28;19924;-43
2021/12/25 13:27:56;;;;;;;;;;;-0.70;84.70;;;;;;5067425;28;19971;-43
2021/12/25 13:30:23;;;;;;;;;;;-0.70;85.40;;;;;;5049507;28;19931;-45
2021/12/25 13:32:50;;;;;;;;;;;-0.70;85.00;;;;;;5052227;28;19978;-45
2021/12/25 13:35:17;;;;;;;;;;;-0.70;86.70;;;;;;5071586;28;20074;-43
2021/12/25 13:37:45;;;;;;;;;;;-0.70;85.60;;;;;;5051745;28;19932;-46
2021/12/25 13:40:14;;;;;;;;;;;-0.80;85.60;;;;;;5067898;28;19964;-44
2021/12/25 13:42:41;;;;;;;;;;;-0.80;87.10;;;;;;5059261;28;20266;-43
2021/12/25 13:45:08;;;;;;;;;;;-0.80;87.30;;;;;;5098582;28;19924;-42
2021/12/25 13:47:38;;;;;;;;;;;-0.80;86.50;;;;;;5066358;28;20380;-45
2021/12/25 13:50:05;;;;;;;;;;;-0.80;86.00;;;;;;5071046;28;20284;-43
2021/12/25 13:52:37;;;;;;;;;;;-0.90;87.00;;;;;;5053713;28;19978;-44
2021/12/25 13:55:07;;;;;;;;;;;-0.90;85.20;;;;;;5059475;28;19974;-45
2021/12/25 13:57:35;;;;;;;;;;;-0.90;86.40;;;;;;5054672;28;20378;-44
2021/12/25 14:00:03;;;;;;;;;;;-0.90;86.00;;;;;;5050069;28;19932;-44
2021/12/25 14:02:30;;;;;;;;;;;-1.00;86.20;;;;;;5067799;28;19928;-43
2021/12/25 14:04:57;;;;;;;;;;;-1.00;85.90;;;;;;5055399;28;19928;-45
2021/12/25 14:07:26;;;;;;;;;;;-1.00;86.70;;;;;;5055033;28;20331;-42
2021/12/25 14:09:56;;;;;;;;;;;-1.10;86.80;;;;;;5051656;28;20355;-46
2021/12/25 14:12:25;;;;;;;;;;;-1.10;87.50;;;;;;5067374;28;20407;-43
2021/12/25 14:14:51;;;;;;;;;;;-1.10;88.50;;;;;;5068984;28;20284;-42
2021/12/25 14:17:18;;;;;;;;;;;-1.10;88.80;;;;;;5067383;28;19924;-42
2021/12/25 14:19:45;;;;;;;;;;;-1.10;88.00;;;;;;5069941;28;19931;-43
2021/12/25 14:22:12;;;;;;;;;;;-1.20;88.00;;;;;;5061163;28;20388;-44
2021/12/25 14:24:42;;;;;;;;;;;-1.20;88.90;;;;;;5053626;28;19936;-44
2021/12/25 14:27:10;;;;;;;;;;;-1.30;88.40;;;;;;5057456;28;19925;-43
2021/12/25 14:29:38;;;;;;;;;;;-1.30;88.50;;;;;;5070659;28;19974;-45
2021/12/25 14:32:05;;;;;;;;;;;-1.30;89.60;;;;;;5061716;28;19930;-43
2021/12/25 14:34:33;;;;;;;;;;;-1.40;89.60;;;;;;5074004;28;20396;-43
2021/12/25 14:37:00;;;;;;;;;;;-1.50;89.90;;;;;;5071371;28;19980;-43
2021/12/25 14:39:27;;;;;;;;;;;-1.50;89.90;;;;;;5070985;28;20015;-43
2021/12/25 14:41:53;;;;;;;;;;;-1.50;90.00;;;;;;5086850;28;19928;-43
2021/12/25 14:44:21;;;;;;;;;;;-1.60;90.10;;;;;;5055055;28;20024;-43
2021/12/25 14:46:50;;;;;;;;;;;-1.60;90.60;;;;;;5065658;28;19936;-44
2021/12/25 14:49:17;;;;;;;;;;;-1.60;90.60;;;;;;5053913;28;19932;-44
2021/12/25 14:51:46;;;;;;;;;;;-1.70;90.90;;;;;;5072543;28;20369;-44
2021/12/25 14:54:13;;;;;;;;;;;-1.70;90.80;;;;;;5054218;28;20399;-43
2021/12/25 14:56:40;;;;;;;;;;;-1.70;91.10;;;;;;5084918;28;19972;-43
2021/12/25 14:59:08;;;;;;;;;;;-1.80;90.60;;;;;;5070431;28;19974;-42
2021/12/25 15:01:36;;;;;;;;;;;-1.80;90.90;;;;;;5065291;28;19932;-45
2021/12/25 15:04:05;;;;;;;;;;;-1.80;91.00;;;;;;5053082;28;20007;-44
2021/12/25 15:06:32;;;;;;;;;;;-1.90;91.10;;;;;;5070154;28;19954;-44
2021/12/25 15:09:00;;;;;;;;;;;-1.90;90.80;;;;;;5090511;28;19964;-43